Seligman, AZ (86337)

05:06 AM MST del 24 novembre 2014 (GMT -0700)
W7RH Westwood Ranch | Change Station
CLOSE
Current Station
Stazione meteo personale
Location: Ash Fork, AZ
Altitudine: 5912 ft
Stazioni meteo nelle vicinanze

Alt. 5912 ft 35.40 °N, 112.66 °W | Updated 42 seconds ago

Sereno
Sereno
14.9 °F
Sembra 15 °F
N
0.0
Vento Variabile Vento da SO

Oggi
Massima -- | Minima -- °F
--% Possibilità di precip.
Ieri
Massima -- | Minima -- °F
Precip. -- in
7:15 AM 5:20 PM
Luna crescente, 5% visible
Pressione 30.21 in
Visibilità 10.0 miglia
Nuvole Sereno
Raffreddamento del vento 15 °F
Punto di rugiada 0 °F
Umidità 51%
Piovosità 0.00 in
Spessore del manto nevoso Non disponibile.
Raggi UV 0 fuori da 12
Polline 4.20 fuori da 12
Qualità dell'aria Non disponibile.
Flu Activity Non disponibile.
METAR KPRC 241053Z AUTO 21003KT 10SM CLR M04/M16 A3024 RMK AO2 SLP228 T10391156

More Conditions Fewer Conditions

Pressione 30.21 in
Visibilità 10.0 miglia
Nuvole Sereno
Raffreddamento del vento 15 °F
Punto di rugiada 0 °F
Umidità 51%
Piovosità 0.00 in
Spessore del manto nevoso Non disponibile.
Raggi UV 0 fuori da 12
Polline 4.20 fuori da 12
Qualità dell'aria Non disponibile.
Flu Activity Non disponibile.
METAR KPRC 241053Z AUTO 21003KT 10SM CLR M04/M16 A3024 RMK AO2 SLP228 T10391156

More Conditions Fewer Conditions

10-Day Weather Forecast

Almanac

Astronomia

Nov. 24, 2014 Alba Tramonto
Ora attuale
Crepuscolo civile
Crepuscolo nautico
Crepuscolo astronomico
Luna
Estensione della luce visibile
Lunghezza del giorno
Tomorrow will be .
, % of the Moon is Illuminated

Gli estremi di oggi

State Highs State Lows

Community

WunderPhotos

Upload Photos

1,773,313 foto caricate!

WunderBlogs® & News

Nearby

Qualità dell'aria

  Qualità dell'aria Indice AQ Inquinante
Not available.

Profondità neve

Stazione Profondità Altitudine

Attività sismica

Città  Distanza Mag. Data & Ora
Minimo Magnitudo Mostrato è 2.5.

Temperature delle acque costiere

Località Temperatura

Stazioni meteo nelle vicinanze